Terminal Aerodrome Forecast
Issued by NWS

Home | Current Version | Previous Version | Text Only | Print | Product List | Glossary On
Versions: 1 2 3 4 5 6 7 8 9 10 11 12 13 14 15 16 17 18 19 20 21
000
FTUS43 KMQT 011400 AAA
TAFSAW
TAF AMD
KSAW 011420Z 0114/0212 19012KT 4SM -DZ BR SCT004 OVC007
      TEMPO 0114/0115 OVC004
     FM011700 18012KT P6SM BKN012
     FM011900 19012G20KT P6SM BKN035
     FM020000 18010KT P6SM -SHRA BKN040
     FM020300 18006KT 4SM -SHRA BR OVC015
     FM021000 18005KT 2SM -SHRA BR OVC005
      AMD LTD TO CLD VIS AND WIND 0202/0210=

USA.gov is the U.S. government's official web portal to all federal, state and local government web resources and services.